Time;durP1;ratioP1;P1;durP2;ratioP2;P2;SDS_P1;SDS_P2;PMS_P1;PMS_P2;Temp;Humidity;BMP_temperature;BMP_pressure;BME280_temperature;BME280_humidity;BME280_pressure;Samples;Min_cycle;Max_cycle;Signal;HPM_P1;HPM_P2
2022/08/17 00:02:20;;;;;;;12.38;10.63;;;;;;;;;;5054351;28;20037;-76
2022/08/17 00:04:53;;;;;;;15.37;10.80;;;;;;;;;;5052885;28;20398;-76
2022/08/17 00:07:21;;;;;;;13.77;11.50;;;;;;;;;;5053842;28;20043;-76
2022/08/17 00:09:49;;;;;;;15.40;11.25;;;;;;;;;;5053845;28;20049;-76
2022/08/17 00:12:16;;;;;;;15.05;11.60;;;;;;;;;;5053708;28;20033;-74
2022/08/17 00:15:05;;;;;;;22.08;11.95;;;;;;;;;;5053608;28;20041;-74
2022/08/17 00:17:37;;;;;;;14.20;11.32;;;;;;;;;;5052309;28;20150;-74
2022/08/17 00:20:05;;;;;;;16.00;11.73;;;;;;;;;;5053588;28;20048;-75
2022/08/17 00:22:33;;;;;;;16.13;11.82;;;;;;;;;;5052948;28;20049;-75
2022/08/17 00:25:10;;;;;;;14.85;11.52;;;;;;;;;;5053071;28;20106;-74
2022/08/17 00:27:38;;;;;;;17.77;12.35;;;;;;;;;;5053517;28;20036;-75
2022/08/17 00:30:07;;;;;;;17.13;12.10;;;;;;;;;;5052231;28;20486;-74
2022/08/17 00:32:43;;;;;;;15.23;12.70;;;;;;;;;;5053232;28;20075;-74
2022/08/17 00:35:31;;;;;;;14.73;12.50;;;;;;;;;;5053189;28;20107;-74
2022/08/17 00:37:58;;;;;;;15.75;11.95;;;;;;;;;;5053128;28;20041;-74
2022/08/17 00:40:26;;;;;;;18.45;12.32;;;;;;;;;;5053391;28;20045;-75
2022/08/17 00:43:18;;;;;;;14.75;11.43;;;;;;;;;;5053127;28;20483;-75
2022/08/17 00:45:46;;;;;;;17.48;12.52;;;;;;;;;;5053183;28;20049;-74
2022/08/17 00:48:13;;;;;;;13.88;11.50;;;;;;;;;;5053089;28;20201;-74
2022/08/17 00:51:02;;;;;;;14.52;12.00;;;;;;;;;;5053165;28;20116;-74
2022/08/17 00:53:32;;;;;;;16.67;11.98;;;;;;;;;;5052949;28;20380;-74
2022/08/17 00:56:01;;;;;;;17.95;12.48;;;;;;;;;;5053082;28;20479;-75
2022/08/17 00:58:30;;;;;;;16.70;12.77;;;;;;;;;;5053013;28;20418;-75
2022/08/17 01:01:03;;;;;;;16.98;12.27;;;;;;;;;;5052951;28;20598;-74
2022/08/17 01:03:31;;;;;;;18.85;12.70;;;;;;;;;;5052974;28;20041;-74
2022/08/17 01:06:01;;;;;;;16.23;12.05;;;;;;;;;;5052891;28;20477;-75
2022/08/17 01:08:29;;;;;;;15.35;12.77;;;;;;;;;;5051669;28;20379;-75
2022/08/17 01:11:00;;;;;;;14.32;12.23;;;;;;;;;;5052629;28;20486;-75
2022/08/17 01:13:33;;;;;;;14.30;12.45;;;;;;;;;;5052898;28;20041;-75
2022/08/17 01:16:27;;;;;;;16.60;13.15;;;;;;;;;;5052773;28;20045;-75
2022/08/17 01:18:58;;;;;;;16.80;12.88;;;;;;;;;;5052514;28;20036;-75
2022/08/17 01:21:31;;;;;;;14.65;12.63;;;;;;;;;;5052474;28;20045;-75
2022/08/17 01:23:59;;;;;;;16.80;13.18;;;;;;;;;;5051304;28;20079;-75
2022/08/17 01:26:27;;;;;;;14.68;12.60;;;;;;;;;;5052631;28;20048;-75
2022/08/17 01:28:55;;;;;;;15.07;12.48;;;;;;;;;;5052542;28;20512;-75
2022/08/17 01:31:24;;;;;;;15.43;12.65;;;;;;;;;;5052229;28;20041;-75
2022/08/17 01:33:52;;;;;;;15.18;12.85;;;;;;;;;;5051239;28;20049;-75
2022/08/17 01:36:20;;;;;;;16.23;12.90;;;;;;;;;;5052530;28;20043;-75
2022/08/17 01:38:47;;;;;;;16.55;13.57;;;;;;;;;;5051157;28;20049;-75
2022/08/17 01:41:16;;;;;;;19.20;13.38;;;;;;;;;;5055180;28;20037;-75
2022/08/17 01:44:01;;;;;;;18.45;13.88;;;;;;;;;;5056501;28;20064;-75
2022/08/17 01:46:32;;;;;;;17.65;13.63;;;;;;;;;;5056460;28;20041;-75
2022/08/17 01:49:00;;;;;;;17.08;13.75;;;;;;;;;;5055209;28;20098;-75
2022/08/17 01:51:31;;;;;;;17.73;13.65;;;;;;;;;;5038829;28;20386;-75
2022/08/17 01:54:04;;;;;;;17.38;14.25;;;;;;;;;;5056360;28;20047;-75
2022/08/17 01:56:32;;;;;;;18.17;13.50;;;;;;;;;;5056394;28;20040;-75
2022/08/17 01:59:00;;;;;;;17.20;12.93;;;;;;;;;;5056107;28;20061;-75
2022/08/17 02:01:30;;;;;;;16.08;13.23;;;;;;;;;;5056101;28;20132;-75
2022/08/17 02:03:58;;;;;;;14.77;13.20;;;;;;;;;;5056399;28;20383;-76
2022/08/17 02:06:29;;;;;;;15.30;12.95;;;;;;;;;;5056074;28;20045;-75
2022/08/17 02:09:12;;;;;;;14.70;12.98;;;;;;;;;;5055901;28;20045;-76
2022/08/17 02:11:44;;;;;;;16.10;13.05;;;;;;;;;;5055882;28;20057;-76
2022/08/17 02:14:13;;;;;;;19.02;13.75;;;;;;;;;;5055885;28;20040;-75
2022/08/17 02:16:41;;;;;;;16.23;12.80;;;;;;;;;;5055920;28;20064;-75
2022/08/17 02:19:13;;;;;;;16.45;13.38;;;;;;;;;;5055915;28;20132;-75
2022/08/17 02:21:41;;;;;;;18.20;13.60;;;;;;;;;;5055641;28;20099;-75
2022/08/17 02:24:11;;;;;;;15.73;13.23;;;;;;;;;;5055865;28;20037;-75
2022/08/17 02:26:38;;;;;;;16.35;14.10;;;;;;;;;;5055015;28;20498;-75
2022/08/17 02:29:06;;;;;;;14.80;12.75;;;;;;;;;;5055680;28;20037;-75
2022/08/17 02:31:34;;;;;;;14.85;12.93;;;;;;;;;;5055736;28;20115;-75
2022/08/17 02:34:02;;;;;;;18.30;16.30;;;;;;;;;;5055410;28;20095;-75
2022/08/17 02:36:33;;;;;;;14.05;12.43;;;;;;;;;;5054322;28;20029;-75
2022/08/17 02:39:01;;;;;;;15.50;12.88;;;;;;;;;;5055399;28;20037;-75
2022/08/17 02:41:29;;;;;;;14.95;12.25;;;;;;;;;;5054388;28;20037;-75
2022/08/17 02:43:57;;;;;;;16.25;12.07;;;;;;;;;;5055401;28;20127;-75
2022/08/17 02:46:25;;;;;;;16.92;12.65;;;;;;;;;;5055582;28;20410;-75
2022/08/17 02:48:53;;;;;;;18.05;14.15;;;;;;;;;;5055452;28;20045;-75
2022/08/17 02:51:20;;;;;;;16.27;12.50;;;;;;;;;;5054811;28;20041;-75
2022/08/17 02:53:48;;;;;;;14.82;13.23;;;;;;;;;;5055782;28;20429;-75
2022/08/17 02:56:15;;;;;;;15.48;12.88;;;;;;;;;;5055721;28;20043;-75
2022/08/17 02:58:43;;;;;;;18.35;13.48;;;;;;;;;;5055185;28;20044;-75
2022/08/17 03:01:11;;;;;;;20.23;14.48;;;;;;;;;;5055077;28;20043;-75
2022/08/17 03:03:39;;;;;;;12.90;11.52;;;;;;;;;;5055097;28;20041;-75
2022/08/17 03:06:07;;;;;;;13.68;12.30;;;;;;;;;;5054908;28;20512;-75
2022/08/17 03:08:36;;;;;;;14.93;12.60;;;;;;;;;;5054901;28;20131;-75
2022/08/17 03:11:04;;;;;;;14.57;11.50;;;;;;;;;;5055282;28;20134;-75
2022/08/17 03:13:31;;;;;;;19.35;12.38;;;;;;;;;;5054916;28;21147;-75
2022/08/17 03:15:59;;;;;;;20.55;14.60;;;;;;;;;;5054837;28;20041;-75
2022/08/17 03:18:26;;;;;;;16.05;13.15;;;;;;;;;;5054774;28;20122;-75
2022/08/17 03:20:55;;;;;;;13.40;11.45;;;;;;;;;;5054803;28;20065;-75
2022/08/17 03:23:23;;;;;;;12.73;10.57;;;;;;;;;;5054567;28;20471;-74
2022/08/17 03:25:52;;;;;;;11.77;10.13;;;;;;;;;;5054667;28;20047;-74
2022/08/17 03:28:20;;;;;;;11.63;10.38;;;;;;;;;;5053302;28;20073;-75
2022/08/17 03:30:49;;;;;;;17.80;11.70;;;;;;;;;;5054399;28;20050;-74
2022/08/17 03:33:18;;;;;;;13.43;10.32;;;;;;;;;;5054501;28;20119;-75
2022/08/17 03:35:46;;;;;;;12.05;9.93;;;;;;;;;;5054130;28;20132;-74
2022/08/17 03:38:15;;;;;;;14.25;10.70;;;;;;;;;;5053014;28;20399;-75
2022/08/17 03:40:47;;;;;;;14.27;11.25;;;;;;;;;;5054570;28;20463;-74
2022/08/17 03:43:28;;;;;;;27.88;21.48;;;;;;;;;;5054354;28;20119;-74
2022/08/17 03:57:24;;;;;;;17.38;13.43;;;;;;;;;;5065364;28;20036;-73
2022/08/17 03:59:52;;;;;;;14.60;11.90;;;;;;;;;;5073739;28;20041;-73
2022/08/17 04:02:21;;;;;;;24.38;17.73;;;;;;;;;;5073931;28;20115;-73
2022/08/17 04:04:49;;;;;;;17.75;15.45;;;;;;;;;;5072950;28;20040;-73
2022/08/17 04:07:21;;;;;;;20.17;13.82;;;;;;;;;;5073786;28;20040;-74
2022/08/17 04:09:49;;;;;;;19.35;16.88;;;;;;;;;;5073555;28;20037;-73
2022/08/17 04:12:18;;;;;;;18.98;12.48;;;;;;;;;;5073640;28;20150;-73
2022/08/17 04:14:46;;;;;;;13.32;11.32;;;;;;;;;;5073661;28;20041;-73
2022/08/17 04:17:21;;;;;;;16.88;11.98;;;;;;;;;;5073568;28;20086;-72
2022/08/17 04:19:48;;;;;;;15.18;11.95;;;;;;;;;;5073519;28;20047;-72
2022/08/17 04:22:16;;;;;;;18.13;12.35;;;;;;;;;;5073211;28;20136;-72
2022/08/17 04:25:16;;;;;;;14.17;11.80;;;;;;;;;;5072893;28;20044;-72
2022/08/17 04:27:44;;;;;;;14.93;12.23;;;;;;;;;;5072864;28;20615;-72
2022/08/17 04:30:11;;;;;;;11.50;10.13;;;;;;;;;;5073899;28;20045;-73
2022/08/17 04:32:54;;;;;;;15.05;11.80;;;;;;;;;;5073359;28;20067;-73
2022/08/17 04:35:41;;;;;;;17.02;15.05;;;;;;;;;;5055292;28;20087;-73
2022/08/17 04:38:10;;;;;;;18.58;14.77;;;;;;;;;;5073381;28;20041;-73
2022/08/17 04:43:25;;;;;;;17.40;12.45;;;;;;;;;;5071173;28;20033;-73
2022/08/17 04:45:57;;;;;;;15.50;13.85;;;;;;;;;;5071952;28;20045;-73
2022/08/17 04:48:26;;;;;;;17.35;15.35;;;;;;;;;;5072523;28;20051;-73
2022/08/17 04:51:04;;;;;;;14.02;12.45;;;;;;;;;;5072625;28;20116;-73
2022/08/17 04:53:32;;;;;;;16.27;13.40;;;;;;;;;;5072459;28;20511;-73
2022/08/17 04:55:59;;;;;;;16.63;12.88;;;;;;;;;;5072949;28;20041;-73
2022/08/17 04:58:27;;;;;;;15.00;12.55;;;;;;;;;;5072853;28;20051;-72
2022/08/17 05:00:54;;;;;;;21.00;15.63;;;;;;;;;;5055121;28;20127;-73
2022/08/17 05:03:22;;;;;;;17.00;13.30;;;;;;;;;;5072848;28;20037;-73
2022/08/17 05:05:50;;;;;;;15.65;14.05;;;;;;;;;;5072773;28;20044;-73
2022/08/17 05:08:18;;;;;;;15.63;12.75;;;;;;;;;;5072723;28;20465;-72
2022/08/17 05:10:46;;;;;;;12.00;10.80;;;;;;;;;;5072819;28;20051;-73
2022/08/17 05:13:18;;;;;;;16.73;13.13;;;;;;;;;;5072604;28;20054;-73
2022/08/17 05:15:46;;;;;;;15.38;11.77;;;;;;;;;;5072301;28;20037;-73
2022/08/17 05:18:15;;;;;;;14.32;10.73;;;;;;;;;;5072705;28;20040;-73
2022/08/17 05:20:42;;;;;;;16.00;12.15;;;;;;;;;;5072486;28;20115;-72
2022/08/17 05:23:11;;;;;;;13.82;12.05;;;;;;;;;;5072407;28;20123;-73
2022/08/17 05:25:40;;;;;;;18.13;14.68;;;;;;;;;;5072919;28;20040;-74
2022/08/17 05:28:13;;;;;;;;;;;;;;;;;;5073655;28;20028;-72
2022/08/17 05:30:41;;;;;;;16.33;11.65;;;;;;;;;;5055384;28;20286;-72
2022/08/17 05:33:11;;;;;;;17.63;12.35;;;;;;;;;;5073108;28;20124;-72
2022/08/17 05:35:42;;;;;;;12.80;11.50;;;;;;;;;;5073071;28;20052;-72
2022/08/17 05:38:10;;;;;;;13.90;11.90;;;;;;;;;;5052891;28;20114;-73
2022/08/17 05:40:38;;;;;;;14.00;11.35;;;;;;;;;;5066143;28;20397;-72
2022/08/17 05:43:08;;;;;;;14.52;11.38;;;;;;;;;;5054886;28;20107;-73
2022/08/17 05:45:41;;;;;;;12.75;11.32;;;;;;;;;;5072561;28;20115;-73
2022/08/17 05:48:23;;;;;;;13.18;11.77;;;;;;;;;;5066620;28;20127;-73
2022/08/17 05:51:15;;;;;;;15.15;11.40;;;;;;;;;;5071602;28;20064;-72
2022/08/17 05:53:50;;;;;;;14.38;10.57;;;;;;;;;;5053863;28;20045;-72
2022/08/17 05:56:34;;;;;;;11.93;9.93;;;;;;;;;;5071875;28;20044;-72
2022/08/17 05:59:01;;;;;;;12.88;11.57;;;;;;;;;;5053780;28;20528;-72
2022/08/17 06:01:46;;;;;;;13.05;11.43;;;;;;;;;;5072132;28;20044;-72
2022/08/17 06:04:13;;;;;;;;;;;;;;;;;;5073167;28;20374;-73
2022/08/17 06:06:44;;;;;;;18.67;15.57;;;;;;;;;;5072695;28;19920;-73
2022/08/17 06:09:25;;;;;;;14.70;11.40;;;;;;;;;;5072797;28;20444;-73
2022/08/17 06:12:25;;;;;;;13.88;12.23;;;;;;;;;;5072664;28;20064;-74
2022/08/17 06:15:01;;;;;;;19.52;15.48;;;;;;;;;;5054064;28;20044;-73
2022/08/17 06:17:29;;;;;;;16.45;13.85;;;;;;;;;;5071760;28;20098;-73
2022/08/17 06:19:59;;;;;;;14.90;13.30;;;;;;;;;;5052804;28;20118;-72
2022/08/17 06:22:32;;;;;;;30.25;26.58;;;;;;;;;;5051410;28;20049;-71
2022/08/17 06:25:06;;;;;;;17.30;15.18;;;;;;;;;;5051370;28;20478;-71
2022/08/17 06:27:37;;;;;;;25.55;21.95;;;;;;;;;;5053138;28;20041;-72
2022/08/17 06:30:10;;;;;;;13.23;10.98;;;;;;;;;;5055622;28;20077;-71
2022/08/17 06:32:39;;;;;;;12.27;11.03;;;;;;;;;;5055555;28;20045;-71
2022/08/17 06:35:07;;;;;;;13.82;11.80;;;;;;;;;;5055574;28;20041;-71
2022/08/17 06:37:49;;;;;;;27.33;23.98;;;;;;;;;;5054507;28;20033;-71
2022/08/17 06:40:55;;;;;;;14.05;12.45;;;;;;;;;;5055368;28;20041;-72
2022/08/17 06:43:43;;;;;;;13.45;9.48;;;;;;;;;;4993894;28;20072;-72
2022/08/17 06:46:34;;;;;;;15.98;13.00;;;;;;;;;;4966552;28;20069;-72
2022/08/17 06:49:06;;;;;;;12.63;10.60;;;;;;;;;;5042556;28;20080;-72
2022/08/17 06:51:42;;;;;;;14.35;9.82;;;;;;;;;;5055343;28;20040;-72
2022/08/17 06:54:15;;;;;;;12.95;11.52;;;;;;;;;;5054951;28;20033;-72
2022/08/17 06:56:58;;;;;;;10.55;9.52;;;;;;;;;;5054973;28;20453;-72
2022/08/17 06:59:32;;;;;;;16.25;14.52;;;;;;;;;;5054644;28;20037;-71
2022/08/17 07:02:26;;;;;;;8.80;7.90;;;;;;;;;;5054726;28;20061;-71
2022/08/17 07:05:15;;;;;;;11.15;10.02;;;;;;;;;;5054564;28;20080;-71
2022/08/17 07:08:01;;;;;;;14.88;10.05;;;;;;;;;;5054527;28;20060;-71
2022/08/17 07:10:41;;;;;;;10.45;8.70;;;;;;;;;;5053706;28;20049;-71
2022/08/17 07:13:13;;;;;;;11.80;8.75;;;;;;;;;;5054533;28;20048;-71
2022/08/17 07:15:42;;;;;;;8.05;6.85;;;;;;;;;;5054511;28;20037;-71
2022/08/17 07:18:10;;;;;;;7.97;7.18;;;;;;;;;;5054454;28;20037;-71
2022/08/17 07:20:41;;;;;;;19.80;17.83;;;;;;;;;;5052830;28;20041;-71
2022/08/17 07:23:09;;;;;;;18.75;16.75;;;;;;;;;;5054136;28;20411;-71
2022/08/17 07:25:36;;;;;;;13.57;9.57;;;;;;;;;;5054300;28;20045;-72
2022/08/17 07:28:05;;;;;;;9.57;8.52;;;;;;;;;;5054207;28;20051;-72
2022/08/17 07:30:36;;;;;;;8.48;7.57;;;;;;;;;;5054123;28;20127;-72
2022/08/17 07:33:18;;;;;;;12.38;9.30;;;;;;;;;;5068808;28;20378;-72
2022/08/17 07:35:47;;;;;;;12.70;10.23;;;;;;;;;;5074986;28;20051;-72
2022/08/17 07:38:16;;;;;;;13.10;9.68;;;;;;;;;;5074093;28;20043;-71
2022/08/17 07:40:56;;;;;;;9.75;8.75;;;;;;;;;;5074151;28;20075;-71
2022/08/17 07:43:25;;;;;;;16.08;12.25;;;;;;;;;;5074193;28;20040;-71
2022/08/17 07:48:48;;;;;;;8.60;7.70;;;;;;;;;;5073772;28;20045;-71
2022/08/17 07:51:16;;;;;;;10.70;7.85;;;;;;;;;;5073762;28;20071;-71
2022/08/17 07:53:44;;;;;;;15.43;10.43;;;;;;;;;;5056122;28;20036;-72
2022/08/17 07:56:30;;;;;;;13.73;11.55;;;;;;;;;;5073659;28;20044;-71
2022/08/17 07:59:08;;;;;;;10.40;7.80;;;;;;;;;;5073758;28;20044;-71
2022/08/17 08:01:36;;;;;;;12.20;8.98;;;;;;;;;;5073594;28;20072;-71
2022/08/17 08:04:17;;;;;;;16.33;14.25;;;;;;;;;;5073292;28;20036;-71
2022/08/17 08:07:07;;;;;;;10.93;8.02;;;;;;;;;;5055720;28;20490;-72
2022/08/17 08:09:58;;;;;;;10.52;8.27;;;;;;;;;;5054709;28;20040;-72
2022/08/17 08:12:34;;;;;;;8.27;7.32;;;;;;;;;;5070386;28;20044;-72
2022/08/17 08:15:17;;;;;;;9.45;6.35;;;;;;;;;;5073521;28;20056;-72
2022/08/17 08:17:54;;;;;;;10.45;8.93;;;;;;;;;;5073492;28;20036;-72
2022/08/17 08:20:26;;;;;;;9.80;7.18;;;;;;;;;;5073324;28;20060;-72
2022/08/17 08:23:19;;;;;;;9.68;7.57;;;;;;;;;;5073326;28;20055;-72
2022/08/17 08:25:47;;;;;;;;;;;;;;;;;;5073755;28;20048;-72
2022/08/17 08:28:32;;;;;;;10.90;7.57;;;;;;;;;;5073225;28;20010;-73
2022/08/17 08:31:09;;;;;;;7.78;6.97;;;;;;;;;;5073272;28;20044;-73
2022/08/17 08:33:47;;;;;;;7.63;5.60;;;;;;;;;;5073577;28;20040;-72
2022/08/17 08:36:36;;;;;;;10.63;6.72;;;;;;;;;;5073117;28;20051;-68
2022/08/17 08:39:23;;;;;;;8.52;5.97;;;;;;;;;;5073130;28;20064;-73
2022/08/17 08:41:59;;;;;;;9.02;6.00;;;;;;;;;;5072960;28;20047;-72
2022/08/17 08:44:35;;;;;;;8.70;6.50;;;;;;;;;;5054978;28;20052;-72
2022/08/17 08:47:42;;;;;;;8.90;6.60;;;;;;;;;;5072950;28;20040;-72
2022/08/17 08:50:28;;;;;;;10.35;7.40;;;;;;;;;;5072063;28;20040;-72
2022/08/17 08:53:07;;;;;;;7.50;6.70;;;;;;;;;;5072830;28;20068;-71
2022/08/17 08:55:44;;;;;;;7.88;6.05;;;;;;;;;;5072714;28;20305;-72
2022/08/17 08:58:18;;;;;;;11.65;6.80;;;;;;;;;;5072739;28;20080;-72
2022/08/17 09:01:09;;;;;;;9.80;6.10;;;;;;;;;;5072660;28;20044;-73
2022/08/17 09:03:49;;;;;;;6.32;5.72;;;;;;;;;;5072549;28;20044;-72
2022/08/17 09:06:33;;;;;;;7.32;5.85;;;;;;;;;;5072682;28;20044;-73
2022/08/17 09:09:23;;;;;;;7.13;6.22;;;;;;;;;;5072817;28;20047;-73
2022/08/17 09:12:05;;;;;;;8.43;5.70;;;;;;;;;;5072649;28;20044;-73
2022/08/17 09:14:36;;;;;;;8.73;5.20;;;;;;;;;;5072961;28;20090;-73
2022/08/17 09:17:13;;;;;;;8.00;5.30;;;;;;;;;;5072632;28;20044;-72
2022/08/17 09:19:45;;;;;;;9.07;5.90;;;;;;;;;;5072602;28;20432;-73
2022/08/17 09:22:16;;;;;;;8.15;6.05;;;;;;;;;;5072369;28;20379;-73
2022/08/17 09:24:44;;;;;;;8.35;5.97;;;;;;;;;;5072677;28;20434;-73
2022/08/17 09:27:20;;;;;;;6.25;4.88;;;;;;;;;;5072411;28;20041;-73
2022/08/17 09:29:49;;;;;;;6.85;4.75;;;;;;;;;;5072334;28;20033;-73
2022/08/17 09:32:16;;;;;;;6.47;4.80;;;;;;;;;;5072371;28;20043;-73
2022/08/17 09:34:53;;;;;;;10.60;6.63;;;;;;;;;;5072699;28;20402;-72
2022/08/17 09:37:41;;;;;;;7.63;4.90;;;;;;;;;;5070173;28;20055;-73
2022/08/17 09:40:13;;;;;;;7.50;5.05;;;;;;;;;;5072335;28;20040;-73
2022/08/17 09:42:46;;;;;;;5.15;4.18;;;;;;;;;;5072397;28;20555;-72
2022/08/17 09:45:20;;;;;;;5.23;4.37;;;;;;;;;;5072546;28;20490;-73
2022/08/17 09:47:55;;;;;;;9.05;5.38;;;;;;;;;;5072419;28;20326;-73
2022/08/17 09:50:37;;;;;;;8.65;5.03;;;;;;;;;;5072972;28;20472;-70
2022/08/17 09:53:24;;;;;;;7.82;5.07;;;;;;;;;;5072267;28;20143;-71
2022/08/17 09:55:56;;;;;;;6.18;4.78;;;;;;;;;;5072248;28;20036;-72
2022/08/17 09:58:29;;;;;;;10.02;6.63;;;;;;;;;;5072188;28;20047;-72
2022/08/17 10:01:01;;;;;;;6.57;4.15;;;;;;;;;;5055209;28;20040;-72
2022/08/17 10:03:49;;;;;;;5.47;4.30;;;;;;;;;;5076232;28;20071;-73
2022/08/17 10:06:23;;;;;;;6.78;4.38;;;;;;;;;;5076241;28;20075;-71
2022/08/17 10:08:51;;;;;;;8.82;7.25;;;;;;;;;;5076078;28;20033;-71
2022/08/17 10:12:14;;;;;;;16.88;14.00;;;;;;;;;;5076064;28;20040;-72
2022/08/17 10:14:31;;;;;;;12.38;11.18;;;;;;;;;;5075929;28;20048;-72
2022/08/17 10:17:17;;;;;;;6.82;4.75;;;;;;;;;;5075968;28;20045;-72
2022/08/17 10:19:49;;;;;;;23.45;19.92;;;;;;;;;;5075962;28;20055;-73
2022/08/17 10:28:29;;;;;;;6.80;4.65;;;;;;;;;;5075937;28;20044;-73
2022/08/17 10:30:59;;;;;;;7.75;5.03;;;;;;;;;;5075634;28;20485;-72
2022/08/17 10:34:01;;;;;;;6.88;4.75;;;;;;;;;;5075590;28;20508;-72
2022/08/17 10:36:37;;;;;;;5.22;4.10;;;;;;;;;;5075553;28;20181;-72
2022/08/17 10:39:37;;;;;;;8.63;4.80;;;;;;;;;;5075567;28;20497;-72
2022/08/17 10:42:28;;;;;;;7.40;4.07;;;;;;;;;;5031257;28;20056;-72
2022/08/17 10:45:02;;;;;;;5.28;3.92;;;;;;;;;;5075375;28;20402;-72
2022/08/17 10:48:00;;;;;;;7.20;5.25;;;;;;;;;;5057563;28;20048;-73
2022/08/17 10:50:58;;;;;;;5.68;3.85;;;;;;;;;;5043717;28;20060;-72
2022/08/17 10:53:32;;;;;;;5.77;4.27;;;;;;;;;;5071559;28;20056;-73
2022/08/17 10:56:12;;;;;;;6.15;4.65;;;;;;;;;;5075258;28;20285;-72
2022/08/17 10:58:45;;;;;;;5.47;3.80;;;;;;;;;;5075095;28;20393;-73
2022/08/17 11:01:13;;;;;;;7.03;3.88;;;;;;;;;;5057279;28;20060;-73
2022/08/17 11:03:52;;;;;;;8.23;4.63;;;;;;;;;;5075112;28;20064;-72
2022/08/17 11:06:40;;;;;;;9.05;4.57;;;;;;;;;;5075033;28;20044;-72
2022/08/17 11:09:23;;;;;;;7.43;4.30;;;;;;;;;;5074917;28;20040;-73
2022/08/17 11:11:57;;;;;;;7.75;4.65;;;;;;;;;;5057017;28;20132;-73
2022/08/17 11:14:24;;;;;;;;;;;;;;;;;;5074590;28;20067;-72
2022/08/17 11:17:11;;;;;;;8.55;4.75;;;;;;;;;;5074870;28;19942;-73
2022/08/17 11:19:55;;;;;;;5.18;4.68;;;;;;;;;;5075026;28;20050;-71
2022/08/17 11:22:23;;;;;;;7.53;4.47;;;;;;;;;;5074430;28;20076;-73
2022/08/17 11:24:52;;;;;;;6.13;4.53;;;;;;;;;;5074378;28;20059;-72
2022/08/17 11:27:28;;;;;;;6.55;4.63;;;;;;;;;;5074550;28;20082;-72
2022/08/17 11:29:58;;;;;;;11.98;5.75;;;;;;;;;;5074587;28;20052;-72
2022/08/17 11:32:32;;;;;;;7.32;5.78;;;;;;;;;;5074421;28;20036;-72
2022/08/17 11:35:10;;;;;;;8.75;4.95;;;;;;;;;;5074318;28;20041;-73
2022/08/17 11:38:01;;;;;;;6.22;4.43;;;;;;;;;;5074845;28;20040;-72
2022/08/17 11:40:40;;;;;;;5.00;4.50;;;;;;;;;;5074206;28;20033;-72
2022/08/17 11:43:14;;;;;;;8.80;5.00;;;;;;;;;;5074339;28;20067;-72
2022/08/17 11:45:51;;;;;;;6.38;4.40;;;;;;;;;;5074339;28;20048;-72
2022/08/17 11:54:16;;;;;;;5.30;4.50;;;;;;;;;;5057050;28;20072;-72
2022/08/17 11:57:21;;;;;;;6.40;4.38;;;;;;;;;;5074051;28;20052;-72
2022/08/17 11:59:51;;;;;;;6.15;4.97;;;;;;;;;;5073780;28;20116;-72
2022/08/17 12:02:31;;;;;;;7.50;4.40;;;;;;;;;;5074028;28;20102;-73
2022/08/17 12:05:01;;;;;;;6.03;4.40;;;;;;;;;;5073841;28;20064;-72
2022/08/17 12:07:31;;;;;;;6.88;4.68;;;;;;;;;;5073666;28;20052;-72
2022/08/17 12:09:59;;;;;;;6.20;4.45;;;;;;;;;;5073663;28;20474;-73
2022/08/17 12:12:37;;;;;;;4.70;4.20;;;;;;;;;;5073717;28;20048;-72
2022/08/17 12:15:06;;;;;;;7.88;4.45;;;;;;;;;;5073944;28;20456;-72
2022/08/17 12:17:39;;;;;;;5.95;4.55;;;;;;;;;;5073513;28;20448;-72
2022/08/17 12:20:28;;;;;;;4.80;4.30;;;;;;;;;;5073690;28;20044;-72
2022/08/17 12:23:03;;;;;;;6.35;4.47;;;;;;;;;;5073360;28;20075;-73
2022/08/17 12:25:35;;;;;;;5.75;4.50;;;;;;;;;;5072078;28;20033;-72
2022/08/17 12:28:04;;;;;;;6.03;4.90;;;;;;;;;;5071233;28;20064;-73
2022/08/17 12:30:35;;;;;;;5.10;4.60;;;;;;;;;;5036874;28;20063;-73
2022/08/17 12:33:02;;;;;;;7.32;4.53;;;;;;;;;;5056437;28;20036;-73
2022/08/17 12:35:33;;;;;;;5.05;4.55;;;;;;;;;;5068213;28;20079;-73
2022/08/17 12:38:01;;;;;;;5.30;4.35;;;;;;;;;;5058784;28;20033;-74
2022/08/17 12:40:30;;;;;;;6.75;5.00;;;;;;;;;;5060956;28;20037;-73
2022/08/17 12:43:00;;;;;;;10.00;4.68;;;;;;;;;;5058703;28;20072;-73
2022/08/17 12:45:30;;;;;;;5.82;4.80;;;;;;;;;;5060137;28;20024;-72
2022/08/17 12:48:06;;;;;;;7.85;4.40;;;;;;;;;;5065086;28;20468;-73
2022/08/17 12:50:38;;;;;;;6.50;3.85;;;;;;;;;;5056266;28;20041;-72
2022/08/17 12:53:16;;;;;;;4.28;3.88;;;;;;;;;;5056366;28;20041;-73
2022/08/17 12:55:44;;;;;;;5.60;4.20;;;;;;;;;;5044544;28;20057;-73
2022/08/17 12:58:16;;;;;;;4.50;4.03;;;;;;;;;;5072292;28;20043;-73
2022/08/17 13:00:55;;;;;;;5.60;4.50;;;;;;;;;;5036169;28;20102;-74
2022/08/17 13:03:25;;;;;;;6.15;4.22;;;;;;;;;;5052282;28;20453;-72
2022/08/17 13:05:53;;;;;;;7.15;4.07;;;;;;;;;;5037415;28;20047;-73
2022/08/17 13:08:28;;;;;;;6.43;4.00;;;;;;;;;;5072466;28;20059;-74
2022/08/17 13:10:59;;;;;;;5.78;4.28;;;;;;;;;;5072075;28;20712;-74
2022/08/17 13:13:28;;;;;;;6.50;4.20;;;;;;;;;;5071019;28;20040;-73
2022/08/17 13:16:04;;;;;;;8.52;4.05;;;;;;;;;;5072043;28;20032;-74
2022/08/17 13:18:42;;;;;;;7.82;4.00;;;;;;;;;;5072156;28;20044;-75
2022/08/17 13:21:18;;;;;;;7.75;4.13;;;;;;;;;;5071338;28;20059;-75
2022/08/17 13:23:58;;;;;;;5.13;4.20;;;;;;;;;;5071637;28;20061;-73
2022/08/17 13:26:31;;;;;;;5.15;4.13;;;;;;;;;;5055999;28;20049;-74
2022/08/17 13:28:59;;;;;;;7.80;4.50;;;;;;;;;;5056972;28;20041;-74
2022/08/17 13:31:27;;;;;;;8.45;4.63;;;;;;;;;;5063006;28;20471;-73
2022/08/17 13:34:12;;;;;;;6.15;4.28;;;;;;;;;;5071749;28;20050;-73
2022/08/17 13:36:41;;;;;;;5.43;4.70;;;;;;;;;;5057590;28;20037;-73
2022/08/17 13:39:24;;;;;;;6.65;5.28;;;;;;;;;;5064768;28;20119;-73
2022/08/17 13:41:54;;;;;;;6.30;4.38;;;;;;;;;;5068974;28;20040;-74
2022/08/17 13:44:39;;;;;;;7.15;4.45;;;;;;;;;;5065707;28;20037;-73
2022/08/17 13:47:17;;;;;;;6.05;5.13;;;;;;;;;;5059559;28;20044;-74
2022/08/17 13:49:45;;;;;;;6.28;4.07;;;;;;;;;;5067572;28;20375;-74
2022/08/17 13:52:34;;;;;;;4.82;4.03;;;;;;;;;;5072028;28;20045;-75
2022/08/17 13:55:19;;;;;;;7.30;4.07;;;;;;;;;;5071769;28;20071;-74
2022/08/17 13:57:49;;;;;;;7.13;4.18;;;;;;;;;;5071807;28;20048;-73
2022/08/17 14:00:35;;;;;;;4.70;4.30;;;;;;;;;;5071946;28;20044;-74
2022/08/17 14:03:03;;;;;;;4.13;3.72;;;;;;;;;;5072021;28;20149;-74
2022/08/17 14:05:32;;;;;;;6.22;4.60;;;;;;;;;;5071557;28;20100;-74
2022/08/17 14:08:05;;;;;;;4.32;3.90;;;;;;;;;;5057341;28;20443;-76
2022/08/17 14:10:35;;;;;;;5.65;4.25;;;;;;;;;;5059377;28;20367;-73
2022/08/17 14:13:03;;;;;;;6.45;4.15;;;;;;;;;;5064351;28;20170;-74
2022/08/17 14:15:31;;;;;;;5.38;4.10;;;;;;;;;;5071019;28;20033;-75
2022/08/17 14:18:20;;;;;;;6.43;4.43;;;;;;;;;;5071429;28;20111;-74
2022/08/17 14:21:08;;;;;;;9.63;4.15;;;;;;;;;;5066082;28;20043;-75
2022/08/17 14:23:36;;;;;;;7.15;5.35;;;;;;;;;;5066539;28;20510;-74
2022/08/17 14:26:04;;;;;;;5.15;4.25;;;;;;;;;;5071614;28;20044;-74
2022/08/17 14:28:31;;;;;;;4.97;4.20;;;;;;;;;;5071283;28;20041;-74
2022/08/17 14:31:03;;;;;;;4.95;4.40;;;;;;;;;;5070646;28;20442;-75
2022/08/17 14:33:30;;;;;;;6.65;4.13;;;;;;;;;;5066565;28;20060;-74
2022/08/17 14:35:58;;;;;;;7.00;4.20;;;;;;;;;;5067245;28;20048;-75
2022/08/17 14:38:26;;;;;;;10.18;4.47;;;;;;;;;;5067292;28;20033;-73
2022/08/17 14:40:54;;;;;;;6.50;4.45;;;;;;;;;;5054145;28;20037;-74
2022/08/17 14:43:21;;;;;;;7.07;4.55;;;;;;;;;;5040264;28;20051;-74
2022/08/17 14:45:49;;;;;;;8.75;6.80;;;;;;;;;;5071645;28;20029;-73
2022/08/17 14:48:16;;;;;;;21.00;5.63;;;;;;;;;;5075538;28;20189;-75
2022/08/17 14:50:45;;;;;;;5.53;4.22;;;;;;;;;;5049935;28;20386;-74
2022/08/17 14:53:15;;;;;;;6.68;4.82;;;;;;;;;;5071274;28;20036;-76
2022/08/17 14:55:44;;;;;;;8.23;4.93;;;;;;;;;;5070560;28;20062;-76
2022/08/17 14:58:14;;;;;;;7.13;5.15;;;;;;;;;;5075199;28;20094;-75
2022/08/17 15:00:42;;;;;;;7.03;4.07;;;;;;;;;;5074366;28;20037;-74
2022/08/17 15:03:10;;;;;;;7.47;4.10;;;;;;;;;;5074232;28;20048;-76
2022/08/17 15:05:38;;;;;;;6.15;4.53;;;;;;;;;;5073632;28;20366;-74
2022/08/17 15:08:06;;;;;;;4.93;4.43;;;;;;;;;;5047825;28;20041;-76
2022/08/17 15:10:34;;;;;;;7.75;5.70;;;;;;;;;;5062404;28;20033;-76
2022/08/17 15:13:01;;;;;;;10.02;4.72;;;;;;;;;;5075067;28;20037;-75
2022/08/17 15:15:29;;;;;;;6.57;4.88;;;;;;;;;;5074898;28;20040;-74
2022/08/17 15:17:58;;;;;;;7.10;5.88;;;;;;;;;;5074746;28;20040;-73
2022/08/17 15:20:28;;;;;;;7.47;5.70;;;;;;;;;;5075410;28;20123;-75
2022/08/17 15:22:57;;;;;;;8.50;4.82;;;;;;;;;;5077737;28;20126;-74
2022/08/17 15:25:26;;;;;;;10.43;4.70;;;;;;;;;;5076071;28;20079;-75
2022/08/17 15:27:54;;;;;;;5.15;3.58;;;;;;;;;;5074703;28;20072;-76
2022/08/17 15:30:22;;;;;;;5.13;3.75;;;;;;;;;;5075500;28;20291;-75
2022/08/17 15:32:50;;;;;;;8.48;4.68;;;;;;;;;;5075030;28;20040;-75
2022/08/17 15:35:25;;;;;;;7.75;5.55;;;;;;;;;;5076311;28;20062;-73
2022/08/17 15:37:59;;;;;;;6.78;5.30;;;;;;;;;;5074651;28;20119;-74
2022/08/17 15:40:38;;;;;;;12.52;5.63;;;;;;;;;;5074471;28;20490;-73